sensor_id;sensor_type;location;lat;lon;timestamp;P1;durP1;ratioP1;P2;durP2;ratioP2
22826;SDS011;11580;52.562;13.418;2022-09-16T00:00:31;3.10;;;1.40;;
22826;SDS011;11580;52.562;13.418;2022-09-16T00:02:58;2.30;;;1.30;;
22826;SDS011;11580;52.562;13.418;2022-09-16T00:05:26;1.50;;;1.40;;
22826;SDS011;11580;52.562;13.418;2022-09-16T00:07:53;1.90;;;1.00;;
22826;SDS011;11580;52.562;13.418;2022-09-16T00:10:21;1.40;;;1.20;;
22826;SDS011;11580;52.562;13.418;2022-09-16T00:12:49;2.47;;;1.50;;
22826;SDS011;11580;52.562;13.418;2022-09-16T00:15:17;1.50;;;1.40;;
22826;SDS011;11580;52.562;13.418;2022-09-16T00:17:45;1.10;;;1.00;;
22826;SDS011;11580;52.562;13.418;2022-09-16T00:20:13;2.30;;;1.70;;
22826;SDS011;11580;52.562;13.418;2022-09-16T00:22:40;1.83;;;1.10;;
22826;SDS011;11580;52.562;13.418;2022-09-16T00:25:07;3.30;;;1.37;;
22826;SDS011;11580;52.562;13.418;2022-09-16T00:27:35;1.60;;;1.20;;
22826;SDS011;11580;52.562;13.418;2022-09-16T00:30:03;2.23;;;1.00;;
22826;SDS011;11580;52.562;13.418;2022-09-16T00:32:33;2.30;;;1.30;;
22826;SDS011;11580;52.562;13.418;2022-09-16T00:35:00;1.93;;;1.20;;
22826;SDS011;11580;52.562;13.418;2022-09-16T00:37:27;1.27;;;1.20;;
22826;SDS011;11580;52.562;13.418;2022-09-16T00:39:57;1.50;;;1.10;;
22826;SDS011;11580;52.562;13.418;2022-09-16T00:42:24;1.20;;;1.00;;
22826;SDS011;11580;52.562;13.418;2022-09-16T00:44:56;1.53;;;1.23;;
22826;SDS011;11580;52.562;13.418;2022-09-16T00:47:28;1.50;;;1.40;;
22826;SDS011;11580;52.562;13.418;2022-09-16T00:50:03;1.53;;;1.30;;
22826;SDS011;11580;52.562;13.418;2022-09-16T00:52:35;1.50;;;1.40;;
22826;SDS011;11580;52.562;13.418;2022-09-16T00:55:05;1.00;;;1.00;;
22826;SDS011;11580;52.562;13.418;2022-09-16T00:57:35;2.27;;;1.20;;
22826;SDS011;11580;52.562;13.418;2022-09-16T01:00:06;1.50;;;1.23;;
22826;SDS011;11580;52.562;13.418;2022-09-16T01:02:37;1.07;;;1.00;;
22826;SDS011;11580;52.562;13.418;2022-09-16T01:05:07;1.20;;;1.10;;
22826;SDS011;11580;52.562;13.418;2022-09-16T01:07:41;1.40;;;1.30;;
22826;SDS011;11580;52.562;13.418;2022-09-16T01:10:11;1.17;;;1.10;;
22826;SDS011;11580;52.562;13.418;2022-09-16T01:12:41;1.67;;;1.03;;
22826;SDS011;11580;52.562;13.418;2022-09-16T01:15:11;1.33;;;1.13;;
22826;SDS011;11580;52.562;13.418;2022-09-16T01:17:45;1.30;;;1.20;;
22826;SDS011;11580;52.562;13.418;2022-09-16T01:23:59;1.50;;;1.10;;
22826;SDS011;11580;52.562;13.418;2022-09-16T01:27:06;1.80;;;1.10;;
22826;SDS011;11580;52.562;13.418;2022-09-16T01:30:16;1.43;;;1.30;;
22826;SDS011;11580;52.562;13.418;2022-09-16T01:33:35;1.53;;;1.13;;
22826;SDS011;11580;52.562;13.418;2022-09-16T01:36:25;1.57;;;1.20;;
22826;SDS011;11580;52.562;13.418;2022-09-16T01:39:07;1.63;;;1.30;;
22826;SDS011;11580;52.562;13.418;2022-09-16T01:41:54;1.77;;;1.27;;
22826;SDS011;11580;52.562;13.418;2022-09-16T01:44:46;1.23;;;1.10;;
22826;SDS011;11580;52.562;13.418;2022-09-16T01:47:24;1.77;;;1.13;;
22826;SDS011;11580;52.562;13.418;2022-09-16T01:50:02;2.27;;;1.37;;
22826;SDS011;11580;52.562;13.418;2022-09-16T01:52:41;1.10;;;1.00;;
22826;SDS011;11580;52.562;13.418;2022-09-16T01:55:21;2.03;;;1.30;;
22826;SDS011;11580;52.562;13.418;2022-09-16T01:57:57;1.53;;;1.20;;
22826;SDS011;11580;52.562;13.418;2022-09-16T02:00:32;1.57;;;1.47;;
22826;SDS011;11580;52.562;13.418;2022-09-16T02:03:02;1.20;;;1.10;;
22826;SDS011;11580;52.562;13.418;2022-09-16T02:05:35;1.47;;;1.37;;
22826;SDS011;11580;52.562;13.418;2022-09-16T02:08:10;2.27;;;1.57;;
22826;SDS011;11580;52.562;13.418;2022-09-16T02:10:42;2.37;;;1.70;;
22826;SDS011;11580;52.562;13.418;2022-09-16T02:13:16;1.90;;;1.63;;
22826;SDS011;11580;52.562;13.418;2022-09-16T02:15:48;2.33;;;1.90;;
22826;SDS011;11580;52.562;13.418;2022-09-16T02:18:21;1.10;;;1.10;;
22826;SDS011;11580;52.562;13.418;2022-09-16T02:20:53;2.13;;;1.37;;
22826;SDS011;11580;52.562;13.418;2022-09-16T02:23:25;2.07;;;1.33;;
22826;SDS011;11580;52.562;13.418;2022-09-16T02:25:57;1.87;;;1.70;;
22826;SDS011;11580;52.562;13.418;2022-09-16T02:28:30;2.17;;;1.70;;
22826;SDS011;11580;52.562;13.418;2022-09-16T02:31:06;3.57;;;1.50;;
22826;SDS011;11580;52.562;13.418;2022-09-16T02:33:37;3.13;;;2.83;;
22826;SDS011;11580;52.562;13.418;2022-09-16T02:36:10;2.73;;;2.20;;
22826;SDS011;11580;52.562;13.418;2022-09-16T02:38:46;1.90;;;1.70;;
22826;SDS011;11580;52.562;13.418;2022-09-16T02:41:18;1.43;;;1.33;;
22826;SDS011;11580;52.562;13.418;2022-09-16T02:43:45;1.50;;;1.30;;
22826;SDS011;11580;52.562;13.418;2022-09-16T02:46:15;1.87;;;1.73;;
22826;SDS011;11580;52.562;13.418;2022-09-16T02:48:57;1.70;;;1.60;;
22826;SDS011;11580;52.562;13.418;2022-09-16T02:51:36;4.90;;;1.80;;
22826;SDS011;11580;52.562;13.418;2022-09-16T02:54:18;1.73;;;1.40;;
22826;SDS011;11580;52.562;13.418;2022-09-16T02:56:53;4.40;;;1.77;;
22826;SDS011;11580;52.562;13.418;2022-09-16T02:59:22;2.37;;;1.50;;
22826;SDS011;11580;52.562;13.418;2022-09-16T03:01:50;2.80;;;1.73;;
22826;SDS011;11580;52.562;13.418;2022-09-16T03:04:19;2.83;;;2.17;;
22826;SDS011;11580;52.562;13.418;2022-09-16T03:06:47;1.93;;;1.67;;
22826;SDS011;11580;52.562;13.418;2022-09-16T03:09:14;2.23;;;1.80;;
22826;SDS011;11580;52.562;13.418;2022-09-16T03:15:18;1.60;;;1.50;;
22826;SDS011;11580;52.562;13.418;2022-09-16T03:21:03;1.90;;;1.80;;
22826;SDS011;11580;52.562;13.418;2022-09-16T03:23:44;1.80;;;1.70;;
22826;SDS011;11580;52.562;13.418;2022-09-16T03:26:25;3.60;;;2.20;;
22826;SDS011;11580;52.562;13.418;2022-09-16T03:29:04;2.07;;;1.90;;
22826;SDS011;11580;52.562;13.418;2022-09-16T03:31:44;3.87;;;2.00;;
22826;SDS011;11580;52.562;13.418;2022-09-16T03:34:19;1.80;;;1.70;;
22826;SDS011;11580;52.562;13.418;2022-09-16T03:36:55;2.10;;;2.00;;
22826;SDS011;11580;52.562;13.418;2022-09-16T03:39:26;2.00;;;1.90;;
22826;SDS011;11580;52.562;13.418;2022-09-16T03:41:54;2.40;;;1.70;;
22826;SDS011;11580;52.562;13.418;2022-09-16T03:44:30;3.23;;;1.70;;
22826;SDS011;11580;52.562;13.418;2022-09-16T03:46:58;1.83;;;1.50;;
22826;SDS011;11580;52.562;13.418;2022-09-16T03:49:26;2.60;;;1.87;;
22826;SDS011;11580;52.562;13.418;2022-09-16T03:51:55;1.83;;;1.70;;
22826;SDS011;11580;52.562;13.418;2022-09-16T03:54:23;1.73;;;1.63;;
22826;SDS011;11580;52.562;13.418;2022-09-16T03:56:51;1.83;;;1.67;;
22826;SDS011;11580;52.562;13.418;2022-09-16T03:59:18;2.40;;;2.00;;
22826;SDS011;11580;52.562;13.418;2022-09-16T04:01:46;3.33;;;2.13;;
22826;SDS011;11580;52.562;13.418;2022-09-16T04:04:13;4.90;;;2.57;;
22826;SDS011;11580;52.562;13.418;2022-09-16T04:06:40;2.43;;;2.23;;
22826;SDS011;11580;52.562;13.418;2022-09-16T04:09:10;3.07;;;2.20;;
22826;SDS011;11580;52.562;13.418;2022-09-16T04:11:39;2.63;;;2.40;;
22826;SDS011;11580;52.562;13.418;2022-09-16T04:14:07;2.90;;;2.03;;
22826;SDS011;11580;52.562;13.418;2022-09-16T04:16:35;5.30;;;2.30;;
22826;SDS011;11580;52.562;13.418;2022-09-16T04:19:02;3.00;;;1.97;;
22826;SDS011;11580;52.562;13.418;2022-09-16T04:21:31;3.83;;;2.40;;
22826;SDS011;11580;52.562;13.418;2022-09-16T04:23:58;2.60;;;2.20;;
22826;SDS011;11580;52.562;13.418;2022-09-16T04:26:27;4.43;;;2.50;;
22826;SDS011;11580;52.562;13.418;2022-09-16T04:28:54;2.33;;;1.60;;
22826;SDS011;11580;52.562;13.418;2022-09-16T04:31:21;2.40;;;1.63;;
22826;SDS011;11580;52.562;13.418;2022-09-16T04:33:49;3.00;;;2.23;;
22826;SDS011;11580;52.562;13.418;2022-09-16T04:36:17;2.00;;;1.80;;
22826;SDS011;11580;52.562;13.418;2022-09-16T04:38:46;3.70;;;1.80;;
22826;SDS011;11580;52.562;13.418;2022-09-16T04:41:15;3.00;;;2.03;;
22826;SDS011;11580;52.562;13.418;2022-09-16T04:43:49;2.47;;;2.27;;
22826;SDS011;11580;52.562;13.418;2022-09-16T04:46:18;2.23;;;2.00;;
22826;SDS011;11580;52.562;13.418;2022-09-16T04:48:45;2.60;;;2.13;;
22826;SDS011;11580;52.562;13.418;2022-09-16T04:51:13;2.23;;;2.03;;
22826;SDS011;11580;52.562;13.418;2022-09-16T04:53:41;3.30;;;2.70;;
22826;SDS011;11580;52.562;13.418;2022-09-16T04:56:10;2.07;;;1.90;;
22826;SDS011;11580;52.562;13.418;2022-09-16T04:58:40;3.30;;;2.80;;
22826;SDS011;11580;52.562;13.418;2022-09-16T05:01:10;2.20;;;2.00;;
22826;SDS011;11580;52.562;13.418;2022-09-16T05:03:40;2.60;;;1.93;;
22826;SDS011;11580;52.562;13.418;2022-09-16T05:06:11;2.20;;;2.00;;
22826;SDS011;11580;52.562;13.418;2022-09-16T05:08:41;3.70;;;2.17;;
22826;SDS011;11580;52.562;13.418;2022-09-16T05:11:09;2.20;;;1.90;;
22826;SDS011;11580;52.562;13.418;2022-09-16T05:13:39;4.00;;;2.50;;
22826;SDS011;11580;52.562;13.418;2022-09-16T05:16:06;3.73;;;2.47;;
22826;SDS011;11580;52.562;13.418;2022-09-16T05:18:38;2.60;;;2.03;;
22826;SDS011;11580;52.562;13.418;2022-09-16T05:21:07;3.10;;;2.10;;
22826;SDS011;11580;52.562;13.418;2022-09-16T05:23:37;5.30;;;2.30;;
22826;SDS011;11580;52.562;13.418;2022-09-16T05:26:05;3.50;;;2.57;;
22826;SDS011;11580;52.562;13.418;2022-09-16T05:28:35;2.17;;;2.00;;
22826;SDS011;11580;52.562;13.418;2022-09-16T05:31:06;2.00;;;1.80;;
22826;SDS011;11580;52.562;13.418;2022-09-16T05:33:37;3.30;;;1.60;;
22826;SDS011;11580;52.562;13.418;2022-09-16T05:36:06;3.77;;;2.07;;
22826;SDS011;11580;52.562;13.418;2022-09-16T05:38:36;2.57;;;2.03;;
22826;SDS011;11580;52.562;13.418;2022-09-16T05:41:04;2.43;;;1.87;;
22826;SDS011;11580;52.562;13.418;2022-09-16T05:43:32;2.20;;;1.90;;
22826;SDS011;11580;52.562;13.418;2022-09-16T05:46:01;3.73;;;1.77;;
22826;SDS011;11580;52.562;13.418;2022-09-16T05:48:31;3.20;;;2.20;;
22826;SDS011;11580;52.562;13.418;2022-09-16T05:51:00;2.90;;;1.67;;
22826;SDS011;11580;52.562;13.418;2022-09-16T05:53:30;3.07;;;1.83;;
22826;SDS011;11580;52.562;13.418;2022-09-16T05:56:00;3.00;;;1.97;;
22826;SDS011;11580;52.562;13.418;2022-09-16T05:58:30;2.87;;;2.00;;
22826;SDS011;11580;52.562;13.418;2022-09-16T06:01:00;2.37;;;1.90;;
22826;SDS011;11580;52.562;13.418;2022-09-16T06:03:31;4.20;;;2.10;;
22826;SDS011;11580;52.562;13.418;2022-09-16T06:06:00;2.80;;;1.87;;
22826;SDS011;11580;52.562;13.418;2022-09-16T06:08:29;3.20;;;2.10;;
22826;SDS011;11580;52.562;13.418;2022-09-16T06:10:59;2.80;;;2.00;;
22826;SDS011;11580;52.562;13.418;2022-09-16T06:13:27;2.77;;;2.20;;
22826;SDS011;11580;52.562;13.418;2022-09-16T06:15:55;2.20;;;2.00;;
22826;SDS011;11580;52.562;13.418;2022-09-16T06:18:23;3.43;;;1.97;;
22826;SDS011;11580;52.562;13.418;2022-09-16T06:20:54;3.40;;;1.80;;
22826;SDS011;11580;52.562;13.418;2022-09-16T06:23:22;2.93;;;2.50;;
22826;SDS011;11580;52.562;13.418;2022-09-16T06:25:57;2.97;;;1.90;;
22826;SDS011;11580;52.562;13.418;2022-09-16T06:28:26;2.00;;;1.80;;
22826;SDS011;11580;52.562;13.418;2022-09-16T06:30:59;2.77;;;2.00;;
22826;SDS011;11580;52.562;13.418;2022-09-16T06:33:29;4.87;;;2.10;;
22826;SDS011;11580;52.562;13.418;2022-09-16T06:35:57;4.53;;;2.83;;
22826;SDS011;11580;52.562;13.418;2022-09-16T06:38:29;4.30;;;2.43;;
22826;SDS011;11580;52.562;13.418;2022-09-16T06:40:57;2.10;;;1.90;;
22826;SDS011;11580;52.562;13.418;2022-09-16T06:43:26;3.10;;;1.90;;
22826;SDS011;11580;52.562;13.418;2022-09-16T06:45:57;3.17;;;2.60;;
22826;SDS011;11580;52.562;13.418;2022-09-16T06:48:25;2.93;;;2.10;;
22826;SDS011;11580;52.562;13.418;2022-09-16T06:50:58;2.57;;;2.27;;
22826;SDS011;11580;52.562;13.418;2022-09-16T06:53:27;2.07;;;1.80;;
22826;SDS011;11580;52.562;13.418;2022-09-16T06:55:58;3.20;;;1.90;;
22826;SDS011;11580;52.562;13.418;2022-09-16T06:58:27;3.87;;;1.70;;
22826;SDS011;11580;52.562;13.418;2022-09-16T07:00:57;2.03;;;1.80;;
22826;SDS011;11580;52.562;13.418;2022-09-16T07:03:24;6.83;;;2.27;;
22826;SDS011;11580;52.562;13.418;2022-09-16T07:05:55;1.50;;;1.40;;
22826;SDS011;11580;52.562;13.418;2022-09-16T07:08:26;2.87;;;1.60;;
22826;SDS011;11580;52.562;13.418;2022-09-16T07:10:55;5.83;;;1.73;;
22826;SDS011;11580;52.562;13.418;2022-09-16T07:13:23;2.70;;;1.80;;
22826;SDS011;11580;52.562;13.418;2022-09-16T07:15:52;1.93;;;1.57;;
22826;SDS011;11580;52.562;13.418;2022-09-16T07:18:20;2.10;;;1.90;;
22826;SDS011;11580;52.562;13.418;2022-09-16T07:20:47;2.13;;;1.93;;
22826;SDS011;11580;52.562;13.418;2022-09-16T07:23:15;2.47;;;2.00;;
22826;SDS011;11580;52.562;13.418;2022-09-16T07:25:42;1.90;;;1.60;;
22826;SDS011;11580;52.562;13.418;2022-09-16T07:28:10;1.43;;;1.27;;
22826;SDS011;11580;52.562;13.418;2022-09-16T07:30:37;2.00;;;1.50;;
22826;SDS011;11580;52.562;13.418;2022-09-16T07:33:05;1.80;;;1.60;;
22826;SDS011;11580;52.562;13.418;2022-09-16T07:35:32;2.87;;;1.70;;
22826;SDS011;11580;52.562;13.418;2022-09-16T07:37:59;1.57;;;1.37;;
22826;SDS011;11580;52.562;13.418;2022-09-16T07:40:28;2.63;;;1.50;;
22826;SDS011;11580;52.562;13.418;2022-09-16T07:42:56;2.03;;;1.40;;
22826;SDS011;11580;52.562;13.418;2022-09-16T07:45:23;3.03;;;1.67;;
22826;SDS011;11580;52.562;13.418;2022-09-16T07:47:50;1.57;;;1.33;;
22826;SDS011;11580;52.562;13.418;2022-09-16T07:50:18;1.80;;;1.40;;
22826;SDS011;11580;52.562;13.418;2022-09-16T07:52:45;3.20;;;1.73;;
22826;SDS011;11580;52.562;13.418;2022-09-16T07:55:12;1.73;;;1.30;;
22826;SDS011;11580;52.562;13.418;2022-09-16T07:57:43;3.07;;;1.80;;
22826;SDS011;11580;52.562;13.418;2022-09-16T08:00:11;2.50;;;1.50;;
22826;SDS011;11580;52.562;13.418;2022-09-16T08:02:40;3.20;;;1.70;;
22826;SDS011;11580;52.562;13.418;2022-09-16T08:05:08;3.47;;;1.63;;
22826;SDS011;11580;52.562;13.418;2022-09-16T08:07:35;2.00;;;1.30;;
22826;SDS011;11580;52.562;13.418;2022-09-16T08:10:03;2.70;;;1.60;;
22826;SDS011;11580;52.562;13.418;2022-09-16T08:12:31;2.00;;;1.43;;
22826;SDS011;11580;52.562;13.418;2022-09-16T08:15:00;2.40;;;1.20;;
22826;SDS011;11580;52.562;13.418;2022-09-16T08:17:28;2.43;;;1.20;;
22826;SDS011;11580;52.562;13.418;2022-09-16T08:19:55;2.63;;;1.30;;
22826;SDS011;11580;52.562;13.418;2022-09-16T08:22:22;2.10;;;1.20;;
22826;SDS011;11580;52.562;13.418;2022-09-16T08:24:50;3.17;;;1.30;;
22826;SDS011;11580;52.562;13.418;2022-09-16T08:27:17;2.93;;;1.60;;
22826;SDS011;11580;52.562;13.418;2022-09-16T08:29:44;2.20;;;1.20;;
22826;SDS011;11580;52.562;13.418;2022-09-16T08:32:12;2.90;;;1.40;;
22826;SDS011;11580;52.562;13.418;2022-09-16T08:34:40;3.53;;;1.40;;
22826;SDS011;11580;52.562;13.418;2022-09-16T08:37:07;1.90;;;1.27;;
22826;SDS011;11580;52.562;13.418;2022-09-16T08:39:34;3.53;;;1.67;;
22826;SDS011;11580;52.562;13.418;2022-09-16T08:42:17;2.43;;;1.77;;
22826;SDS011;11580;52.562;13.418;2022-09-16T08:45:16;3.00;;;1.30;;
22826;SDS011;11580;52.562;13.418;2022-09-16T08:47:59;1.97;;;1.20;;
22826;SDS011;11580;52.562;13.418;2022-09-16T08:50:43;2.50;;;2.00;;
22826;SDS011;11580;52.562;13.418;2022-09-16T08:53:15;3.57;;;1.50;;
22826;SDS011;11580;52.562;13.418;2022-09-16T08:55:50;2.40;;;1.40;;
22826;SDS011;11580;52.562;13.418;2022-09-16T08:58:19;3.03;;;1.37;;
22826;SDS011;11580;52.562;13.418;2022-09-16T09:00:51;4.13;;;1.33;;
22826;SDS011;11580;52.562;13.418;2022-09-16T09:03:27;1.57;;;1.20;;
22826;SDS011;11580;52.562;13.418;2022-09-16T09:06:03;3.40;;;1.60;;
22826;SDS011;11580;52.562;13.418;2022-09-16T09:08:46;2.80;;;1.50;;
22826;SDS011;11580;52.562;13.418;2022-09-16T09:11:27;3.10;;;1.80;;
22826;SDS011;11580;52.562;13.418;2022-09-16T09:14:08;2.80;;;1.27;;
22826;SDS011;11580;52.562;13.418;2022-09-16T09:16:58;2.33;;;1.07;;
22826;SDS011;11580;52.562;13.418;2022-09-16T09:19:40;2.53;;;1.27;;
22826;SDS011;11580;52.562;13.418;2022-09-16T09:22:22;2.10;;;0.90;;
22826;SDS011;11580;52.562;13.418;2022-09-16T09:25:18;1.37;;;1.23;;
22826;SDS011;11580;52.562;13.418;2022-09-16T09:27:57;1.77;;;1.10;;
22826;SDS011;11580;52.562;13.418;2022-09-16T09:30:42;1.70;;;1.10;;
22826;SDS011;11580;52.562;13.418;2022-09-16T09:33:21;1.27;;;1.03;;
22826;SDS011;11580;52.562;13.418;2022-09-16T09:36:10;2.53;;;1.10;;
22826;SDS011;11580;52.562;13.418;2022-09-16T09:39:19;4.83;;;1.53;;
22826;SDS011;11580;52.562;13.418;2022-09-16T09:42:08;3.67;;;1.33;;
22826;SDS011;11580;52.562;13.418;2022-09-16T09:44:45;3.17;;;1.20;;
22826;SDS011;11580;52.562;13.418;2022-09-16T09:47:22;2.50;;;1.47;;
22826;SDS011;11580;52.562;13.418;2022-09-16T09:49:57;3.70;;;1.23;;
22826;SDS011;11580;52.562;13.418;2022-09-16T09:52:41;1.50;;;1.10;;
22826;SDS011;11580;52.562;13.418;2022-09-16T09:55:16;2.33;;;1.23;;
22826;SDS011;11580;52.562;13.418;2022-09-16T09:57:52;1.90;;;1.17;;
22826;SDS011;11580;52.562;13.418;2022-09-16T10:00:41;1.93;;;1.30;;
22826;SDS011;11580;52.562;13.418;2022-09-16T10:03:09;3.23;;;1.43;;
22826;SDS011;11580;52.562;13.418;2022-09-16T10:05:39;3.90;;;1.30;;
22826;SDS011;11580;52.562;13.418;2022-09-16T10:08:11;2.50;;;1.33;;
22826;SDS011;11580;52.562;13.418;2022-09-16T10:10:48;2.67;;;1.27;;
22826;SDS011;11580;52.562;13.418;2022-09-16T10:13:19;2.13;;;1.20;;
22826;SDS011;11580;52.562;13.418;2022-09-16T10:15:51;3.10;;;1.33;;
22826;SDS011;11580;52.562;13.418;2022-09-16T10:18:23;2.83;;;1.00;;
22826;SDS011;11580;52.562;13.418;2022-09-16T10:20:55;8.20;;;1.83;;
22826;SDS011;11580;52.562;13.418;2022-09-16T10:23:30;2.80;;;1.50;;
22826;SDS011;11580;52.562;13.418;2022-09-16T10:26:05;2.27;;;1.77;;
22826;SDS011;11580;52.562;13.418;2022-09-16T10:28:58;5.20;;;2.23;;
22826;SDS011;11580;52.562;13.418;2022-09-16T10:31:30;3.97;;;1.30;;
22826;SDS011;11580;52.562;13.418;2022-09-16T10:34:03;3.57;;;1.63;;
22826;SDS011;11580;52.562;13.418;2022-09-16T10:36:40;2.73;;;1.23;;
22826;SDS011;11580;52.562;13.418;2022-09-16T10:39:19;2.47;;;1.30;;
22826;SDS011;11580;52.562;13.418;2022-09-16T10:41:50;3.00;;;1.00;;
22826;SDS011;11580;52.562;13.418;2022-09-16T10:44:20;1.93;;;0.97;;
22826;SDS011;11580;52.562;13.418;2022-09-16T10:46:51;2.47;;;1.53;;
22826;SDS011;11580;52.562;13.418;2022-09-16T10:49:24;2.97;;;1.30;;
22826;SDS011;11580;52.562;13.418;2022-09-16T10:52:13;1.80;;;1.10;;
22826;SDS011;11580;52.562;13.418;2022-09-16T10:54:44;2.70;;;1.13;;
22826;SDS011;11580;52.562;13.418;2022-09-16T10:57:21;3.37;;;1.60;;
22826;SDS011;11580;52.562;13.418;2022-09-16T10:59:57;3.00;;;1.50;;
22826;SDS011;11580;52.562;13.418;2022-09-16T11:02:31;2.40;;;1.37;;
22826;SDS011;11580;52.562;13.418;2022-09-16T11:05:39;2.33;;;1.10;;
22826;SDS011;11580;52.562;13.418;2022-09-16T11:08:19;3.33;;;1.30;;
22826;SDS011;11580;52.562;13.418;2022-09-16T11:11:12;3.23;;;1.10;;
22826;SDS011;11580;52.562;13.418;2022-09-16T11:13:55;4.57;;;1.53;;
22826;SDS011;11580;52.562;13.418;2022-09-16T11:16:37;3.63;;;1.43;;
22826;SDS011;11580;52.562;13.418;2022-09-16T11:19:30;5.60;;;1.47;;
22826;SDS011;11580;52.562;13.418;2022-09-16T11:22:12;1.97;;;1.17;;
22826;SDS011;11580;52.562;13.418;2022-09-16T11:25:12;3.50;;;1.80;;
22826;SDS011;11580;52.562;13.418;2022-09-16T11:28:03;3.50;;;1.27;;
22826;SDS011;11580;52.562;13.418;2022-09-16T11:31:06;3.20;;;1.43;;
22826;SDS011;11580;52.562;13.418;2022-09-16T11:33:45;1.50;;;1.30;;
22826;SDS011;11580;52.562;13.418;2022-09-16T11:36:33;2.00;;;1.30;;
22826;SDS011;11580;52.562;13.418;2022-09-16T11:39:38;2.50;;;1.20;;
22826;SDS011;11580;52.562;13.418;2022-09-16T11:42:24;3.13;;;1.23;;
22826;SDS011;11580;52.562;13.418;2022-09-16T11:45:02;3.63;;;1.30;;
22826;SDS011;11580;52.562;13.418;2022-09-16T11:47:57;1.10;;;0.90;;
22826;SDS011;11580;52.562;13.418;2022-09-16T11:50:48;1.83;;;1.00;;
22826;SDS011;11580;52.562;13.418;2022-09-16T11:53:34;1.80;;;1.23;;
22826;SDS011;11580;52.562;13.418;2022-09-16T11:56:30;5.00;;;1.27;;
22826;SDS011;11580;52.562;13.418;2022-09-16T11:59:09;3.47;;;1.33;;
22826;SDS011;11580;52.562;13.418;2022-09-16T12:01:49;1.60;;;0.97;;
22826;SDS011;11580;52.562;13.418;2022-09-16T12:04:24;3.00;;;1.20;;
22826;SDS011;11580;52.562;13.418;2022-09-16T12:06:59;1.60;;;1.00;;
22826;SDS011;11580;52.562;13.418;2022-09-16T12:09:35;4.00;;;1.50;;
22826;SDS011;11580;52.562;13.418;2022-09-16T12:12:12;3.33;;;1.13;;
22826;SDS011;11580;52.562;13.418;2022-09-16T12:14:44;1.80;;;1.20;;
22826;SDS011;11580;52.562;13.418;2022-09-16T12:17:19;2.27;;;1.23;;
22826;SDS011;11580;52.562;13.418;2022-09-16T12:19:53;2.30;;;1.60;;
22826;SDS011;11580;52.562;13.418;2022-09-16T12:22:27;1.90;;;1.00;;
22826;SDS011;11580;52.562;13.418;2022-09-16T12:25:01;3.50;;;1.13;;
22826;SDS011;11580;52.562;13.418;2022-09-16T12:27:40;3.07;;;1.30;;
22826;SDS011;11580;52.562;13.418;2022-09-16T12:30:15;1.50;;;1.03;;
22826;SDS011;11580;52.562;13.418;2022-09-16T12:32:54;2.57;;;1.20;;
22826;SDS011;11580;52.562;13.418;2022-09-16T12:35:29;1.87;;;1.23;;
22826;SDS011;11580;52.562;13.418;2022-09-16T12:38:03;2.73;;;1.10;;
22826;SDS011;11580;52.562;13.418;2022-09-16T12:40:36;1.97;;;1.10;;
22826;SDS011;11580;52.562;13.418;2022-09-16T12:43:26;1.47;;;1.10;;
22826;SDS011;11580;52.562;13.418;2022-09-16T12:46:26;2.87;;;1.33;;
22826;SDS011;11580;52.562;13.418;2022-09-16T12:52:49;2.47;;;1.10;;
22826;SDS011;11580;52.562;13.418;2022-09-16T12:55:55;3.10;;;1.07;;
22826;SDS011;11580;52.562;13.418;2022-09-16T12:58:38;2.47;;;1.20;;
22826;SDS011;11580;52.562;13.418;2022-09-16T13:01:49;3.43;;;1.17;;
22826;SDS011;11580;52.562;13.418;2022-09-16T13:04:22;2.13;;;0.83;;
22826;SDS011;11580;52.562;13.418;2022-09-16T13:06:57;1.90;;;0.93;;
22826;SDS011;11580;52.562;13.418;2022-09-16T13:09:26;1.93;;;1.00;;
22826;SDS011;11580;52.562;13.418;2022-09-16T13:11:58;1.87;;;1.00;;
22826;SDS011;11580;52.562;13.418;2022-09-16T13:14:28;2.23;;;0.80;;
22826;SDS011;11580;52.562;13.418;2022-09-16T13:16:58;2.17;;;1.03;;
22826;SDS011;11580;52.562;13.418;2022-09-16T13:19:30;6.73;;;1.33;;
22826;SDS011;11580;52.562;13.418;2022-09-16T13:22:22;3.40;;;1.47;;
22826;SDS011;11580;52.562;13.418;2022-09-16T13:24:56;2.07;;;1.37;;
22826;SDS011;11580;52.562;13.418;2022-09-16T13:27:35;2.03;;;1.00;;
22826;SDS011;11580;52.562;13.418;2022-09-16T13:30:09;2.30;;;0.90;;
22826;SDS011;11580;52.562;13.418;2022-09-16T13:32:57;1.77;;;1.27;;
22826;SDS011;11580;52.562;13.418;2022-09-16T13:35:34;1.07;;;0.90;;
22826;SDS011;11580;52.562;13.418;2022-09-16T13:41:04;2.07;;;0.80;;
22826;SDS011;11580;52.562;13.418;2022-09-16T13:43:33;3.13;;;1.27;;
22826;SDS011;11580;52.562;13.418;2022-09-16T13:46:04;1.20;;;1.00;;
22826;SDS011;11580;52.562;13.418;2022-09-16T13:48:38;1.20;;;1.07;;
22826;SDS011;11580;52.562;13.418;2022-09-16T13:51:13;2.77;;;1.30;;
22826;SDS011;11580;52.562;13.418;2022-09-16T13:53:47;2.90;;;1.17;;
22826;SDS011;11580;52.562;13.418;2022-09-16T13:56:27;1.37;;;0.97;;
22826;SDS011;11580;52.562;13.418;2022-09-16T13:59:23;1.60;;;1.10;;
22826;SDS011;11580;52.562;13.418;2022-09-16T14:02:13;2.67;;;1.17;;
22826;SDS011;11580;52.562;13.418;2022-09-16T14:04:56;2.37;;;0.90;;
22826;SDS011;11580;52.562;13.418;2022-09-16T14:07:45;2.93;;;1.10;;
22826;SDS011;11580;52.562;13.418;2022-09-16T14:10:22;2.10;;;1.70;;
22826;SDS011;11580;52.562;13.418;2022-09-16T14:13:00;1.73;;;0.90;;
22826;SDS011;11580;52.562;13.418;2022-09-16T14:15:39;2.10;;;0.83;;
22826;SDS011;11580;52.562;13.418;2022-09-16T14:18:11;2.17;;;1.30;;
22826;SDS011;11580;52.562;13.418;2022-09-16T14:20:51;2.73;;;1.30;;
22826;SDS011;11580;52.562;13.418;2022-09-16T14:23:27;3.03;;;1.00;;
22826;SDS011;11580;52.562;13.418;2022-09-16T14:25:58;4.40;;;0.83;;
22826;SDS011;11580;52.562;13.418;2022-09-16T14:28:37;1.40;;;0.90;;
22826;SDS011;11580;52.562;13.418;2022-09-16T14:31:06;2.80;;;1.23;;
22826;SDS011;11580;52.562;13.418;2022-09-16T14:33:39;3.13;;;1.13;;
22826;SDS011;11580;52.562;13.418;2022-09-16T14:36:12;1.30;;;1.10;;
22826;SDS011;11580;52.562;13.418;2022-09-16T14:38:45;1.47;;;1.00;;
22826;SDS011;11580;52.562;13.418;2022-09-16T14:41:22;4.33;;;1.10;;
22826;SDS011;11580;52.562;13.418;2022-09-16T14:43:57;2.90;;;1.20;;
22826;SDS011;11580;52.562;13.418;2022-09-16T14:46:37;2.03;;;1.10;;
22826;SDS011;11580;52.562;13.418;2022-09-16T14:49:08;1.97;;;1.00;;
22826;SDS011;11580;52.562;13.418;2022-09-16T14:51:37;2.23;;;1.03;;
22826;SDS011;11580;52.562;13.418;2022-09-16T14:54:14;1.97;;;1.00;;
22826;SDS011;11580;52.562;13.418;2022-09-16T14:56:54;1.33;;;0.90;;
22826;SDS011;11580;52.562;13.418;2022-09-16T14:59:26;3.23;;;1.20;;
22826;SDS011;11580;52.562;13.418;2022-09-16T15:01:58;1.90;;;1.00;;
22826;SDS011;11580;52.562;13.418;2022-09-16T15:04:36;2.30;;;1.27;;
22826;SDS011;11580;52.562;13.418;2022-09-16T15:07:10;1.50;;;1.17;;
22826;SDS011;11580;52.562;13.418;2022-09-16T15:09:45;1.60;;;1.10;;
22826;SDS011;11580;52.562;13.418;2022-09-16T15:12:20;1.00;;;0.90;;
22826;SDS011;11580;52.562;13.418;2022-09-16T15:14:54;2.27;;;1.00;;
22826;SDS011;11580;52.562;13.418;2022-09-16T15:17:23;1.83;;;1.10;;
22826;SDS011;11580;52.562;13.418;2022-09-16T15:19:54;4.00;;;1.00;;
22826;SDS011;11580;52.562;13.418;2022-09-16T15:22:24;2.50;;;1.20;;
22826;SDS011;11580;52.562;13.418;2022-09-16T15:24:52;2.50;;;0.90;;
22826;SDS011;11580;52.562;13.418;2022-09-16T15:27:27;3.30;;;1.00;;
22826;SDS011;11580;52.562;13.418;2022-09-16T15:29:57;2.13;;;1.13;;
22826;SDS011;11580;52.562;13.418;2022-09-16T15:32:29;2.07;;;1.07;;